createdAt,value
2019-03-05T00:04:57.185Z,7.20
2019-03-05T00:10:02.003Z,7.20
2019-03-05T00:15:12.316Z,7.20
2019-03-05T00:20:17.126Z,7.20
2019-03-05T00:25:27.605Z,7.20
2019-03-05T00:30:35.290Z,7.20
2019-03-05T00:35:45.649Z,7.20
2019-03-05T00:40:56.406Z,7.20
2019-03-05T00:46:09.825Z,7.20
2019-03-05T00:51:48.718Z,7.20
2019-03-05T00:56:59.229Z,7.20
2019-03-05T01:02:15.707Z,7.30
2019-03-05T01:07:21.032Z,7.30
2019-03-05T01:12:26.179Z,7.20
2019-03-05T01:17:31.024Z,7.30
2019-03-05T01:22:35.869Z,7.20
2019-03-05T01:27:40.636Z,7.20
2019-03-05T01:32:47.117Z,7.10
2019-03-05T01:37:51.958Z,7.10
2019-03-05T01:42:56.865Z,7.00
2019-03-05T01:48:01.778Z,6.90
2019-03-05T01:53:07.192Z,7.00
2019-03-05T01:58:12.007Z,6.90
2019-03-05T02:03:16.828Z,7.00
2019-03-05T02:08:21.854Z,7.00
2019-03-05T02:13:27.102Z,6.90
2019-03-05T02:18:32.129Z,6.90
2019-03-05T02:23:59.096Z,6.80
2019-03-05T02:29:12.838Z,6.70
2019-03-05T02:34:35.456Z,6.50
2019-03-05T02:39:46.107Z,6.40
2019-03-05T02:45:10.510Z,6.40
2019-03-05T02:50:35.241Z,6.30
2019-03-05T02:55:45.895Z,6.40
2019-03-05T03:01:01.182Z,6.30
2019-03-05T03:06:07.674Z,6.20
2019-03-05T03:11:12.518Z,6.10
2019-03-05T03:16:17.452Z,6.10
2019-03-05T03:21:22.197Z,6.10
2019-03-05T03:26:27.022Z,6.00
2019-03-05T03:31:31.776Z,5.90
2019-03-05T03:36:36.593Z,5.80
2019-03-05T03:41:41.417Z,5.80
2019-03-05T03:46:46.236Z,5.80
2019-03-05T03:51:51.513Z,5.70
2019-03-05T03:56:56.491Z,5.70
2019-03-05T04:02:01.305Z,5.60
2019-03-05T04:07:06.130Z,5.60
2019-03-05T04:12:10.893Z,5.60
2019-03-05T04:17:15.884Z,5.60
2019-03-05T04:22:20.635Z,5.60
2019-03-05T04:27:25.471Z,5.60
2019-03-05T04:32:30.150Z,5.70
2019-03-05T04:37:34.972Z,5.80
2019-03-05T04:42:39.802Z,5.80
2019-03-05T04:47:44.649Z,5.80
2019-03-05T04:52:49.410Z,5.80
2019-03-05T04:57:54.756Z,5.80
2019-03-05T05:02:59.593Z,5.80
2019-03-05T05:08:04.731Z,5.80
2019-03-05T05:13:09.483Z,5.70
2019-03-05T05:18:14.352Z,5.80
2019-03-05T05:23:19.182Z,5.80
2019-03-05T05:28:24.008Z,5.90
2019-03-05T05:33:28.769Z,5.80
2019-03-05T05:38:33.591Z,5.80
2019-03-05T05:43:38.416Z,5.90
2019-03-05T05:48:43.177Z,6.00
2019-03-05T05:53:48.225Z,5.90
2019-03-05T05:58:52.907Z,6.00
2019-03-05T06:03:57.733Z,5.90
2019-03-05T06:09:02.559Z,6.00
2019-03-05T06:14:07.385Z,6.00
2019-03-05T06:19:12.256Z,6.10
2019-03-05T06:24:17.004Z,6.20
2019-03-05T06:29:21.772Z,6.30
2019-03-05T06:34:26.541Z,6.40
2019-03-05T06:39:31.289Z,6.50
2019-03-05T06:44:36.608Z,6.60
2019-03-05T06:49:41.408Z,6.70
2019-03-05T06:54:46.194Z,6.80
2019-03-05T06:59:51.012Z,6.90
2019-03-05T07:04:58.736Z,6.90
2019-03-05T07:10:12.316Z,7.10
2019-03-05T07:15:39.552Z,7.20
2019-03-05T07:20:53.341Z,7.30
2019-03-05T07:25:58.164Z,7.40
2019-03-05T07:31:02.988Z,7.60
2019-03-05T07:36:07.996Z,7.70
2019-03-05T07:41:12.827Z,7.90
2019-03-05T07:46:17.588Z,8.00
2019-03-05T07:51:22.416Z,8.10
2019-03-05T07:56:27.245Z,8.30
2019-03-05T08:01:32.201Z,8.20
2019-03-05T08:06:39.373Z,8.20
2019-03-05T08:11:44.217Z,8.50
2019-03-05T08:16:49.075Z,8.80
2019-03-05T08:21:54.000Z,8.80
2019-03-05T08:26:58.945Z,8.70
2019-03-05T08:32:04.317Z,8.50
2019-03-05T08:37:09.172Z,8.40
2019-03-05T08:42:13.993Z,8.20
2019-03-05T08:47:18.832Z,8.10
2019-03-05T08:52:23.657Z,8.10
2019-03-05T08:57:28.489Z,8.10
2019-03-05T09:02:33.259Z,8.10
2019-03-05T09:07:38.664Z,8.00
2019-03-05T09:12:43.488Z,7.90
2019-03-05T09:17:48.310Z,7.90
2019-03-05T09:22:53.217Z,7.90
2019-03-05T09:27:57.981Z,8.00
2019-03-05T09:33:02.798Z,8.00
2019-03-05T09:38:07.798Z,8.10
2019-03-05T09:43:12.622Z,8.10
2019-03-05T09:48:17.445Z,8.30
2019-03-05T09:53:22.388Z,8.30
2019-03-05T09:58:27.187Z,8.30
2019-03-05T10:03:31.928Z,8.60
2019-03-05T10:08:36.741Z,9.10
2019-03-05T10:13:41.567Z,9.00
2019-03-05T10:18:46.324Z,8.80
2019-03-05T10:23:51.292Z,8.80
2019-03-05T10:28:56.081Z,8.90
2019-03-05T10:34:00.899Z,8.90
2019-03-05T10:39:08.659Z,8.60
2019-03-05T10:44:13.584Z,8.70
2019-03-05T10:49:18.410Z,8.80
2019-03-05T10:54:23.161Z,9.00
2019-03-05T10:59:27.917Z,9.00
2019-03-05T11:04:32.836Z,9.10
2019-03-05T11:09:37.653Z,8.90
2019-03-05T11:14:42.404Z,8.70
2019-03-05T11:19:47.157Z,8.60
2019-03-05T11:24:52.060Z,8.50
2019-03-05T11:29:56.808Z,8.60
2019-03-05T11:35:01.566Z,8.80
2019-03-05T11:40:20.771Z,9.10
2019-03-05T11:45:23.528Z,9.20
2019-03-05T11:50:28.351Z,9.20
2019-03-05T11:55:33.180Z,9.40
2019-03-05T12:00:57.508Z,9.20
2019-03-05T12:06:02.394Z,8.40
2019-03-05T12:11:07.216Z,8.10
2019-03-05T12:16:12.141Z,8.30
2019-03-05T12:21:17.343Z,8.30
2019-03-05T12:26:22.257Z,8.40
2019-03-05T12:31:27.366Z,8.60
2019-03-05T12:36:32.190Z,8.60
2019-03-05T12:41:37.022Z,8.90
2019-03-05T12:46:41.852Z,9.30
2019-03-05T12:51:46.714Z,9.90
2019-03-05T12:56:51.467Z,9.60
2019-03-05T13:01:56.311Z,9.30
2019-03-05T13:07:02.112Z,9.40
2019-03-05T13:12:06.939Z,9.90
2019-03-05T13:17:11.764Z,10.20
2019-03-05T13:22:16.682Z,9.90
2019-03-05T13:27:22.740Z,9.20
2019-03-05T13:32:27.950Z,9.00
2019-03-05T13:37:32.786Z,9.30
2019-03-05T13:42:39.045Z,9.50
2019-03-05T13:47:52.724Z,9.40
2019-03-05T13:53:14.492Z,9.00
2019-03-05T13:58:27.907Z,9.00
2019-03-05T14:03:38.507Z,9.00
2019-03-05T14:08:55.000Z,9.00
2019-03-05T14:13:59.827Z,9.00
2019-03-05T14:19:06.008Z,9.00
2019-03-05T14:24:11.016Z,9.00
2019-03-05T14:29:15.931Z,9.10
2019-03-05T14:34:20.723Z,9.40
2019-03-05T14:39:29.857Z,9.40
2019-03-05T14:44:39.751Z,9.30
2019-03-05T14:49:42.617Z,9.00
2019-03-05T14:54:48.445Z,8.70
2019-03-05T14:59:53.473Z,8.90
2019-03-05T15:04:58.210Z,9.10
2019-03-05T15:10:03.042Z,8.80
2019-03-05T15:15:19.613Z,8.60
2019-03-05T15:20:24.478Z,8.60
2019-03-05T15:25:29.692Z,8.60
2019-03-05T15:30:34.702Z,8.60
2019-03-05T15:35:39.550Z,8.60
2019-03-05T15:40:45.827Z,8.50
2019-03-05T15:45:50.708Z,8.30
2019-03-05T15:51:16.223Z,8.10
2019-03-05T15:56:40.065Z,8.10
2019-03-05T16:01:44.884Z,8.00
2019-03-05T16:06:49.788Z,8.00
2019-03-05T16:11:54.897Z,7.90
2019-03-05T16:16:59.722Z,7.90
2019-03-05T16:22:04.545Z,7.90
2019-03-05T16:27:09.394Z,7.90
2019-03-05T16:32:17.577Z,7.90
2019-03-05T16:37:23.971Z,7.80
2019-03-05T16:42:36.406Z,7.90
2019-03-05T16:47:57.914Z,7.90
2019-03-05T16:53:04.372Z,7.90
2019-03-05T16:58:14.259Z,7.80
2019-03-05T17:03:24.216Z,7.80
2019-03-05T17:08:49.048Z,7.80
2019-03-05T17:13:53.878Z,7.70
2019-03-05T17:18:58.933Z,7.70
2019-03-05T17:24:04.171Z,7.60
2019-03-05T17:29:09.410Z,7.50
2019-03-05T17:34:14.513Z,7.40
2019-03-05T17:39:20.228Z,7.20
2019-03-05T17:44:25.070Z,7.10
2019-03-05T17:49:29.891Z,7.10
2019-03-05T17:54:34.712Z,7.10
2019-03-05T17:59:39.553Z,7.10
2019-03-05T18:04:45.482Z,7.00
2019-03-05T18:09:50.494Z,7.00
2019-03-05T18:14:55.151Z,7.10
2019-03-05T18:20:00.890Z,7.10
2019-03-05T18:25:08.898Z,7.10
2019-03-05T18:30:22.029Z,7.10
2019-03-05T18:35:26.863Z,7.10
2019-03-05T18:40:31.697Z,7.10
2019-03-05T18:45:38.608Z,7.00
2019-03-05T18:50:43.468Z,6.90
2019-03-05T18:55:48.610Z,6.90
2019-03-05T19:00:53.423Z,6.90
2019-03-05T19:05:58.564Z,6.90
2019-03-05T19:11:03.386Z,6.90
2019-03-05T19:16:08.404Z,6.80
2019-03-05T19:21:13.735Z,6.60
2019-03-05T19:26:18.687Z,6.50
2019-03-05T19:31:23.509Z,6.30
2019-03-05T19:36:28.350Z,6.30
2019-03-05T19:41:33.200Z,6.20
2019-03-05T19:46:38.048Z,6.20
2019-03-05T19:51:42.891Z,6.20
2019-03-05T19:56:47.806Z,6.20
2019-03-05T20:01:52.710Z,6.20
2019-03-05T20:06:58.554Z,6.20
2019-03-05T20:12:03.404Z,6.30
2019-03-05T20:17:15.702Z,6.40
2019-03-05T20:22:20.391Z,6.50
2019-03-05T20:27:25.168Z,6.50
2019-03-05T20:32:30.466Z,6.40
2019-03-05T20:37:35.266Z,6.50
2019-03-05T20:42:40.026Z,6.50
2019-03-05T20:47:44.891Z,6.50
2019-03-05T20:52:49.723Z,6.50
2019-03-05T20:57:54.562Z,6.50
2019-03-05T21:03:00.991Z,6.50
2019-03-05T21:08:06.095Z,6.50
2019-03-05T21:13:10.946Z,6.50
2019-03-05T21:18:19.477Z,6.50
2019-03-05T21:23:24.553Z,6.50
2019-03-05T21:28:29.399Z,6.50
2019-03-05T21:33:34.098Z,6.50
2019-03-05T21:38:38.870Z,6.50
2019-03-05T21:43:43.962Z,6.50
2019-03-05T21:48:48.798Z,6.60
2019-03-05T21:53:53.638Z,6.50
2019-03-05T21:58:58.488Z,6.30
2019-03-05T22:04:03.267Z,6.10
2019-03-05T22:09:08.216Z,5.90
2019-03-05T22:14:13.051Z,5.80
2019-03-05T22:19:18.070Z,5.70
2019-03-05T22:24:23.256Z,5.70
2019-03-05T22:29:28.087Z,5.70
2019-03-05T22:34:32.909Z,5.60
2019-03-05T22:39:38.662Z,5.60
2019-03-05T22:44:43.791Z,5.60
2019-03-05T22:49:48.694Z,5.50
2019-03-05T22:54:53.826Z,5.50
2019-03-05T22:59:58.663Z,5.40
2019-03-05T23:05:05.656Z,5.40
2019-03-05T23:10:12.748Z,5.30
2019-03-05T23:15:18.559Z,5.30
2019-03-05T23:20:23.566Z,5.30
2019-03-05T23:25:28.664Z,5.20
2019-03-05T23:30:33.492Z,5.20
2019-03-05T23:35:38.346Z,5.20
2019-03-05T23:40:43.605Z,5.20
2019-03-05T23:45:48.460Z,5.10
2019-03-05T23:50:53.316Z,5.10
2019-03-05T23:55:58.163Z,5.10
